createdAt,value
2023-01-18T00:04:11.773Z,11.07
2023-01-18T00:09:13.704Z,11.25
2023-01-18T00:14:15.511Z,10.23
2023-01-18T00:19:17.417Z,11.32
2023-01-18T00:24:20.771Z,11.25
2023-01-18T00:29:22.642Z,10.07
2023-01-18T00:34:24.413Z,10.40
2023-01-18T00:39:26.176Z,10.27
2023-01-18T00:44:27.946Z,9.10
2023-01-18T00:49:29.726Z,8.05
2023-01-18T00:54:31.686Z,8.95
2023-01-18T00:59:33.488Z,9.73
2023-01-18T01:04:54.267Z,7.82
2023-01-18T01:09:57.848Z,8.32
2023-01-18T01:15:17.936Z,9.70
2023-01-18T01:20:39.091Z,7.20
2023-01-18T01:25:59.716Z,8.38
2023-01-18T01:31:03.133Z,9.80
2023-01-18T01:36:13.500Z,8.65
2023-01-18T01:41:25.364Z,7.63
2023-01-18T01:46:48.289Z,8.68
2023-01-18T01:52:02.964Z,9.52
2023-01-18T01:57:12.650Z,9.82
2023-01-18T02:02:14.697Z,6.40
2023-01-18T02:07:16.556Z,9.48
2023-01-18T02:12:19.149Z,9.70
2023-01-18T02:17:42.725Z,8.15
2023-01-18T02:23:03.116Z,8.75
2023-01-18T02:28:14.013Z,8.55
2023-01-18T02:33:25.040Z,8.85
2023-01-18T02:38:38.281Z,9.07
2023-01-18T02:44:01.780Z,8.93
2023-01-18T02:49:13.236Z,9.48
2023-01-18T02:54:24.940Z,8.93
2023-01-18T02:59:34.751Z,9.48
2023-01-18T03:04:38.681Z,6.97
2023-01-18T03:09:42.007Z,9.10
2023-01-18T03:15:13.091Z,9.52
2023-01-18T03:20:20.621Z,8.95
2023-01-18T03:25:34.819Z,8.00
2023-01-18T03:30:57.658Z,9.10
2023-01-18T03:36:00.669Z,11.43
2023-01-18T03:41:03.994Z,10.70
2023-01-18T03:46:08.073Z,12.15
2023-01-18T03:51:39.630Z,13.15
2023-01-18T03:57:01.572Z,11.13
2023-01-18T04:02:05.326Z,11.00
2023-01-18T04:07:07.141Z,10.82
2023-01-18T04:12:08.909Z,11.15
2023-01-18T04:17:10.694Z,10.27
2023-01-18T04:22:12.500Z,10.02
2023-01-18T04:27:14.290Z,9.27
2023-01-18T04:32:16.086Z,9.90
2023-01-18T04:37:17.961Z,9.63
2023-01-18T04:42:19.773Z,10.35
2023-01-18T04:47:21.964Z,8.82
2023-01-18T04:52:24.077Z,9.68
2023-01-18T04:57:26.260Z,10.02
2023-01-18T05:02:28.113Z,9.48
2023-01-18T05:07:31.266Z,8.88
2023-01-18T05:12:33.086Z,8.45
2023-01-18T05:17:35.208Z,9.50
2023-01-18T05:22:37.294Z,9.45
2023-01-18T05:27:39.118Z,9.13
2023-01-18T05:32:40.922Z,9.70
2023-01-18T05:37:42.840Z,9.63
2023-01-18T05:42:45.028Z,9.35
2023-01-18T05:47:46.863Z,10.15
2023-01-18T05:52:48.636Z,8.25
2023-01-18T05:57:50.428Z,9.23
2023-01-18T06:02:53.635Z,8.32
2023-01-18T06:07:55.451Z,9.82
2023-01-18T06:12:58.976Z,10.48
2023-01-18T06:18:00.970Z,10.77
2023-01-18T06:23:02.823Z,9.68
2023-01-18T06:28:05.286Z,10.25
2023-01-18T06:33:08.119Z,10.13
2023-01-18T06:38:11.032Z,10.05
2023-01-18T06:43:14.354Z,10.52
2023-01-18T06:48:16.303Z,9.80
2023-01-18T06:53:20.285Z,11.32
2023-01-18T06:58:22.130Z,10.60
2023-01-18T07:03:24.813Z,10.70
2023-01-18T07:08:27.475Z,10.60
2023-01-18T07:13:29.262Z,11.90
2023-01-18T07:18:31.344Z,11.00
2023-01-18T07:23:35.648Z,12.60
2023-01-18T07:28:37.667Z,11.20
2023-01-18T07:33:39.827Z,11.30
2023-01-18T07:38:41.938Z,11.52
2023-01-18T07:43:45.146Z,12.25
2023-01-18T07:48:48.312Z,11.90
2023-01-18T07:53:54.718Z,12.50
2023-01-18T07:58:56.581Z,12.30
2023-01-18T08:04:01.026Z,11.88
2023-01-18T08:09:03.240Z,12.25
2023-01-18T08:14:05.015Z,11.77
2023-01-18T08:19:06.932Z,12.32
2023-01-18T08:24:08.733Z,12.90
2023-01-18T08:29:10.588Z,12.90
2023-01-18T08:34:12.382Z,12.32
2023-01-18T08:39:15.051Z,12.32
2023-01-18T08:44:17.154Z,13.48
2023-01-18T08:49:18.966Z,13.25
2023-01-18T08:54:20.810Z,12.60
2023-01-18T08:59:23.823Z,13.50
2023-01-18T09:04:27.933Z,13.57
2023-01-18T09:09:29.747Z,12.45
2023-01-18T09:14:31.601Z,15.25
2023-01-18T09:19:33.376Z,14.18
2023-01-18T09:24:36.963Z,15.30
2023-01-18T09:29:38.786Z,14.00
2023-01-18T09:34:41.098Z,14.35
2023-01-18T09:39:51.496Z,14.10
2023-01-18T09:44:59.944Z,14.05
2023-01-18T09:50:13.250Z,14.15
2023-01-18T09:55:36.589Z,13.35
2023-01-18T10:00:44.194Z,14.27
2023-01-18T10:06:09.065Z,13.18
2023-01-18T10:11:19.532Z,13.52
2023-01-18T10:16:21.414Z,8.57
2023-01-18T10:21:42.385Z,13.63
2023-01-18T10:26:45.162Z,12.02
2023-01-18T10:31:58.711Z,11.48
2023-01-18T10:37:15.435Z,11.40
2023-01-18T10:42:24.054Z,12.15
2023-01-18T10:47:25.906Z,11.02
2023-01-18T10:52:30.498Z,10.18
2023-01-18T10:57:36.980Z,10.48
2023-01-18T11:02:39.727Z,9.30
2023-01-18T11:07:41.619Z,9.13
2023-01-18T11:12:52.100Z,8.82
2023-01-18T11:18:00.705Z,6.35
2023-01-18T11:23:04.401Z,8.43
2023-01-18T11:28:17.749Z,8.18
2023-01-18T11:33:22.153Z,7.43
2023-01-18T11:38:34.644Z,8.20
2023-01-18T11:43:39.481Z,6.85
2023-01-18T11:48:52.731Z,6.80
2023-01-18T11:54:16.237Z,6.55
2023-01-18T11:59:30.353Z,6.97
2023-01-18T12:05:07.755Z,5.15
2023-01-18T12:10:20.372Z,5.00
2023-01-18T12:15:31.300Z,3.90
2023-01-18T12:20:52.001Z,4.13
2023-01-18T12:31:45.150Z,3.05
2023-01-18T12:37:24.807Z,2.85
2023-01-18T12:42:45.989Z,2.83
2023-01-18T12:48:11.137Z,2.53
2023-01-18T12:54:02.970Z,2.55
2023-01-18T12:59:42.833Z,3.45
2023-01-18T13:04:49.806Z,2.53
2023-01-18T13:09:52.307Z,2.55
2023-01-18T13:15:14.044Z,2.60
2023-01-18T13:20:28.791Z,2.22
2023-01-18T13:25:33.348Z,2.47
2023-01-18T13:30:55.037Z,2.60
2023-01-18T13:36:01.875Z,2.97
2023-01-18T13:41:12.711Z,2.55
2023-01-18T13:46:14.492Z,2.80
2023-01-18T13:51:41.362Z,2.83
2023-01-18T13:57:05.906Z,3.00
2023-01-18T14:02:41.882Z,3.80
2023-01-18T14:07:53.175Z,2.80
2023-01-18T14:12:57.024Z,3.47
2023-01-18T14:17:59.538Z,4.47
2023-01-18T14:23:17.213Z,2.60
2023-01-18T14:28:30.725Z,3.17
2023-01-18T14:33:33.998Z,3.90
2023-01-18T14:38:36.617Z,2.92
2023-01-18T14:43:44.377Z,2.88
2023-01-18T14:48:54.809Z,3.22
2023-01-18T14:54:03.952Z,2.70
2023-01-18T14:59:27.543Z,2.42
2023-01-18T15:04:35.367Z,2.80
2023-01-18T15:09:39.546Z,3.20
2023-01-18T15:14:48.325Z,3.90
2023-01-18T15:19:53.782Z,3.38
2023-01-18T15:24:57.770Z,4.00
2023-01-18T15:30:01.762Z,3.95
2023-01-18T15:35:04.580Z,4.43
2023-01-18T15:40:15.479Z,3.92
2023-01-18T15:45:20.702Z,3.95
2023-01-18T15:50:26.479Z,3.97
2023-01-18T15:55:40.000Z,3.92
2023-01-18T16:00:54.880Z,4.35
2023-01-18T16:06:11.048Z,4.05
2023-01-18T16:11:30.920Z,5.20
2023-01-18T16:16:39.278Z,3.63
2023-01-18T16:21:44.554Z,6.10
2023-01-18T16:26:46.908Z,4.97
2023-01-18T16:31:48.702Z,5.80
2023-01-18T16:36:51.618Z,4.97
2023-01-18T16:41:57.032Z,6.43
2023-01-18T16:46:59.269Z,5.07
2023-01-18T16:52:01.002Z,5.72
2023-01-18T16:57:02.748Z,6.65
2023-01-18T17:02:04.618Z,6.22
2023-01-18T17:07:09.272Z,6.57
2023-01-18T17:12:11.021Z,6.20
2023-01-18T17:17:12.823Z,6.47
2023-01-18T17:22:15.103Z,6.15
2023-01-18T17:27:16.863Z,6.53
2023-01-18T17:32:18.802Z,5.95
2023-01-18T17:37:20.545Z,6.03
2023-01-18T17:42:29.987Z,7.28
2023-01-18T17:47:34.763Z,4.70
2023-01-18T17:52:38.685Z,6.68
2023-01-18T17:57:40.868Z,6.40
2023-01-18T18:02:43.044Z,7.28
2023-01-18T18:07:45.160Z,7.43
2023-01-18T18:12:47.044Z,7.05
2023-01-18T18:17:48.948Z,7.40
2023-01-18T18:22:50.858Z,8.20
2023-01-18T18:27:52.690Z,7.25
2023-01-18T18:32:54.610Z,7.45
2023-01-18T18:37:57.229Z,7.13
2023-01-18T18:43:03.210Z,7.18
2023-01-18T18:48:05.949Z,7.35
2023-01-18T18:53:08.008Z,7.75
2023-01-18T18:58:10.386Z,6.47
2023-01-18T19:03:12.433Z,7.65
2023-01-18T19:08:14.323Z,6.85
2023-01-18T19:13:16.699Z,6.47
2023-01-18T19:18:18.639Z,7.15
2023-01-18T19:23:21.111Z,7.40
2023-01-18T19:28:23.493Z,7.78
2023-01-18T19:33:25.478Z,6.97
2023-01-18T19:38:27.493Z,6.38
2023-01-18T19:43:29.556Z,6.63
2023-01-18T19:48:32.847Z,6.47
2023-01-18T19:53:34.760Z,6.28
2023-01-18T19:58:37.644Z,8.07
2023-01-18T20:03:40.177Z,6.88
2023-01-18T20:08:42.530Z,8.05
2023-01-18T20:13:49.682Z,9.05
2023-01-18T20:18:51.470Z,8.15
2023-01-18T20:23:56.221Z,8.75
2023-01-18T20:28:58.511Z,8.82
2023-01-18T20:34:00.734Z,8.43
2023-01-18T20:39:04.036Z,9.32
2023-01-18T20:44:06.138Z,9.25
2023-01-18T20:49:08.622Z,11.00
2023-01-18T20:54:11.082Z,9.90
2023-01-18T20:59:12.886Z,9.98
2023-01-18T21:04:14.698Z,9.40
2023-01-18T21:09:16.788Z,9.10
2023-01-18T21:14:18.698Z,10.48
2023-01-18T21:19:23.806Z,9.98
2023-01-18T21:24:25.720Z,10.82
2023-01-18T21:29:27.538Z,9.93
2023-01-18T21:34:29.348Z,9.93
2023-01-18T21:39:31.248Z,9.23
2023-01-18T21:44:51.490Z,10.38
2023-01-18T21:50:17.598Z,8.57
2023-01-18T21:55:20.665Z,10.40
2023-01-18T22:00:22.696Z,10.88
2023-01-18T22:05:24.727Z,10.38
2023-01-18T22:10:27.879Z,12.02
2023-01-18T22:15:29.739Z,11.43
2023-01-18T22:20:31.839Z,10.82
2023-01-18T22:25:33.711Z,11.05
2023-01-18T22:30:35.657Z,10.52
2023-01-18T22:35:37.868Z,10.05
2023-01-18T22:40:40.250Z,11.50
2023-01-18T22:45:42.040Z,9.98
2023-01-18T22:50:50.967Z,11.25
2023-01-18T22:55:52.925Z,10.80
2023-01-18T23:00:54.789Z,11.50
2023-01-18T23:06:00.671Z,11.75
2023-01-18T23:11:02.455Z,11.13
2023-01-18T23:16:27.344Z,11.80
2023-01-18T23:21:29.080Z,11.50
2023-01-18T23:26:30.896Z,11.20
2023-01-18T23:31:32.960Z,12.20
2023-01-18T23:36:34.952Z,11.95
2023-01-18T23:41:55.206Z,11.98
2023-01-18T23:47:15.718Z,9.43
2023-01-18T23:52:36.301Z,9.00
2023-01-18T23:57:38.281Z,12.32
